Country
Station

 

Weather  for  Balikesir  -  Turkey    Turkey

  
30 °C (86 °F)
    
 
 

Current METAR for Balikesir is :

LTBF 180950Z VRB01KT CAVOK 30/08 Q1015 NOSIG

 

This is a report for Balikesir - Turkey.
 
The report was made 24 minutes ago, at 09:50 UTC .
The wind was blowing at a speed of 0.5 meters per second (1.2 miles per hour) from variable directions.
 
The temperature was 30 °C (86 °F), with a dew-point at 8 °C (46 °F).
The temperature felt like 28 °C (83 °F).
 
The atmospheric pressure was 1015 hPa (29.97 inHg).
The relative humidity was 25.3%.
 
There were no clouds below 1500 meter (5000 feet) and no cumulonimbus clouds.
 
The overall visibility was greater than 10 kilometers (6.2 miles).
 

 
 
 
 

Country :   A   B   C   D   E   F   G   H   I   J   K   L   M   N   O   P   Q   R   S   T   U   V   W   Y   Z

 

Site Info  |  Disclaimer  |  Credits  |  Privacy
Contact us  |  Add to favorites
© 2013-2019 METARs - All rights reserved